createdAt,value
2018-07-20T00:03:03.209Z,21.30
2018-07-20T00:07:58.150Z,21.30
2018-07-20T00:12:52.802Z,21.20
2018-07-20T00:17:47.433Z,21.10
2018-07-20T00:22:42.102Z,21.10
2018-07-20T00:27:36.859Z,21.10
2018-07-20T00:32:31.498Z,20.90
2018-07-20T00:37:26.245Z,20.80
2018-07-20T00:42:20.869Z,20.80
2018-07-20T00:47:15.500Z,20.80
2018-07-20T00:52:10.106Z,20.90
2018-07-20T01:01:59.297Z,20.80
2018-07-20T01:06:54.001Z,20.70
2018-07-20T01:11:48.862Z,20.60
2018-07-20T01:16:43.449Z,20.60
2018-07-20T01:21:38.421Z,20.50
2018-07-20T01:26:33.068Z,20.50
2018-07-20T01:31:28.231Z,20.30
2018-07-20T01:36:22.952Z,20.20
2018-07-20T01:41:17.516Z,20.20
2018-07-20T01:46:12.302Z,20.10
2018-07-20T01:51:07.022Z,20.00
2018-07-20T01:56:01.682Z,20.00
2018-07-20T02:00:56.406Z,19.90
2018-07-20T02:05:50.963Z,19.80
2018-07-20T02:10:45.617Z,19.70
2018-07-20T02:15:40.342Z,19.70
2018-07-20T02:20:35.438Z,19.60
2018-07-20T02:25:30.228Z,19.50
2018-07-20T02:30:24.973Z,19.50
2018-07-20T02:35:19.650Z,19.50
2018-07-20T02:40:14.321Z,19.50
2018-07-20T02:45:08.926Z,19.40
2018-07-20T02:50:03.545Z,19.40
2018-07-20T02:59:52.421Z,19.30
2018-07-20T03:04:47.092Z,19.20
2018-07-20T03:09:41.821Z,19.20
2018-07-20T03:14:36.698Z,19.20
2018-07-20T03:19:31.951Z,19.20
2018-07-20T03:24:26.638Z,19.10
2018-07-20T03:29:21.248Z,19.10
2018-07-20T03:34:15.953Z,19.00
2018-07-20T03:39:11.303Z,18.90
2018-07-20T03:44:06.385Z,18.90
2018-07-20T03:49:01.153Z,18.80
2018-07-20T03:53:56.065Z,18.80
2018-07-20T03:58:50.793Z,18.80
2018-07-20T04:03:45.863Z,18.80
2018-07-20T04:08:40.473Z,19.00
2018-07-20T04:13:35.069Z,19.10
2018-07-20T04:18:29.685Z,19.50
2018-07-20T04:23:24.600Z,20.10
2018-07-20T04:28:19.105Z,20.80
2018-07-20T04:33:13.632Z,21.60
2018-07-20T04:38:08.336Z,22.20
2018-07-20T04:43:02.989Z,23.30
2018-07-20T04:47:58.250Z,23.80
2018-07-20T04:52:52.945Z,25.10
2018-07-20T04:57:47.692Z,25.70
2018-07-20T05:02:42.340Z,25.50
2018-07-20T05:07:37.783Z,24.70
2018-07-20T05:12:32.843Z,25.40
2018-07-20T05:17:27.503Z,25.10
2018-07-20T05:22:22.398Z,25.10
2018-07-20T05:27:16.860Z,24.70
2018-07-20T05:32:12.275Z,25.80
2018-07-20T05:37:07.065Z,27.50
2018-07-20T05:42:01.484Z,29.10
2018-07-20T05:46:55.884Z,30.10
2018-07-20T05:51:50.576Z,30.50
2018-07-20T05:56:44.973Z,30.70
2018-07-20T06:01:39.379Z,30.90
2018-07-20T06:06:33.820Z,31.10
2018-07-20T06:11:28.284Z,31.20
2018-07-20T06:16:22.712Z,31.10
2018-07-20T06:21:17.150Z,30.90
2018-07-20T06:26:11.592Z,30.80
2018-07-20T06:31:06.066Z,30.60
2018-07-20T06:36:00.531Z,30.50
2018-07-20T06:40:55.009Z,30.00
2018-07-20T06:45:49.540Z,29.70
2018-07-20T06:50:44.242Z,29.20
2018-07-20T06:55:38.765Z,28.60
2018-07-20T07:00:33.233Z,27.80
2018-07-20T07:05:27.736Z,27.90
2018-07-20T07:10:22.685Z,28.20
2018-07-20T07:15:17.399Z,28.10
2018-07-20T07:20:29.546Z,28.00
2018-07-20T07:25:25.092Z,28.40
2018-07-20T07:30:19.806Z,28.40
2018-07-20T07:35:14.312Z,28.70
2018-07-20T07:40:09.004Z,28.90
2018-07-20T07:45:03.600Z,28.80
2018-07-20T07:49:58.263Z,28.40
2018-07-20T07:54:52.707Z,28.50
2018-07-20T07:59:47.324Z,28.40
2018-07-20T08:04:41.821Z,28.00
2018-07-20T08:09:36.733Z,28.00
2018-07-20T08:14:31.742Z,27.80
2018-07-20T08:29:15.288Z,28.40
2018-07-20T08:34:09.727Z,28.40
2018-07-20T08:39:15.983Z,28.60
2018-07-20T08:44:10.647Z,28.60
2018-07-20T08:53:59.765Z,28.60
2018-07-20T08:58:54.786Z,28.60
2018-07-20T09:03:49.205Z,28.70
2018-07-20T09:08:52.727Z,29.00
2018-07-20T09:13:59.215Z,29.30
2018-07-20T09:19:06.963Z,29.70
2018-07-20T09:24:14.066Z,30.00
2018-07-20T09:29:08.954Z,30.20
2018-07-20T09:34:03.535Z,29.30
2018-07-20T09:38:58.192Z,29.30
2018-07-20T09:43:52.885Z,29.50
2018-07-20T09:48:48.307Z,29.80
2018-07-20T09:53:43.895Z,30.30
2018-07-20T09:58:38.630Z,30.40
2018-07-20T10:03:33.544Z,30.50
2018-07-20T10:08:28.293Z,30.50
2018-07-20T10:13:24.011Z,30.10
2018-07-20T10:18:19.361Z,30.30
2018-07-20T10:28:08.777Z,30.20
2018-07-20T10:33:03.880Z,30.60
2018-07-20T10:37:59.738Z,30.60
2018-07-20T10:42:55.641Z,30.70
2018-07-20T10:48:15.244Z,31.10
2018-07-20T10:53:12.049Z,31.30
2018-07-20T10:58:07.303Z,31.40
2018-07-20T11:03:04.002Z,31.60
2018-07-20T11:08:06.122Z,31.60
2018-07-20T11:13:02.913Z,31.60
2018-07-20T11:17:57.789Z,32.10
2018-07-20T11:22:52.841Z,32.10
2018-07-20T11:27:48.706Z,32.10
2018-07-20T11:37:39.933Z,32.20
2018-07-20T11:42:36.481Z,32.40
2018-07-20T11:47:31.289Z,32.40
2018-07-20T11:52:26.483Z,32.30
2018-07-20T11:57:21.220Z,31.90
2018-07-20T12:02:16.200Z,32.00
2018-07-20T12:07:10.776Z,31.60
2018-07-20T12:12:06.629Z,31.70
2018-07-20T12:17:01.173Z,31.80
2018-07-20T12:26:51.307Z,32.10
2018-07-20T12:31:45.908Z,32.20
2018-07-20T12:36:40.718Z,32.10
2018-07-20T12:41:35.231Z,31.90
2018-07-20T12:46:29.926Z,32.20
2018-07-20T12:51:29.736Z,32.50
2018-07-20T12:56:26.624Z,32.20
2018-07-20T13:11:10.801Z,33.30
2018-07-20T13:16:05.754Z,33.30
2018-07-20T13:21:00.528Z,33.30
2018-07-20T13:25:54.980Z,33.30
2018-07-20T13:30:49.600Z,33.00
2018-07-20T13:35:44.116Z,32.70
2018-07-20T13:40:38.528Z,32.50
2018-07-20T13:45:33.031Z,32.20
2018-07-20T13:50:28.176Z,32.00
2018-07-20T13:55:22.758Z,32.10
2018-07-20T14:00:17.308Z,32.10
2018-07-20T14:05:11.852Z,31.90
2018-07-20T14:10:06.917Z,31.90
2018-07-20T14:15:01.365Z,31.90
2018-07-20T14:19:55.793Z,31.90
2018-07-20T14:24:50.373Z,31.40
2018-07-20T14:29:44.788Z,31.00
2018-07-20T14:34:39.360Z,30.70
2018-07-20T14:39:33.873Z,30.50
2018-07-20T14:44:28.304Z,30.40
2018-07-20T14:49:22.778Z,30.30
2018-07-20T14:54:17.220Z,29.90
2018-07-20T14:59:11.855Z,30.00
2018-07-20T15:04:06.575Z,30.10
2018-07-20T15:09:01.438Z,30.20
2018-07-20T15:18:50.415Z,30.70
2018-07-20T15:23:44.934Z,30.80
2018-07-20T15:28:39.511Z,30.90
2018-07-20T15:33:34.121Z,31.00
2018-07-20T15:38:28.734Z,31.20
2018-07-20T15:43:23.342Z,31.40
2018-07-20T15:48:17.937Z,31.60
2018-07-20T15:53:38.363Z,31.50
2018-07-20T15:58:07.089Z,31.30
2018-07-20T16:03:01.851Z,31.20
2018-07-20T16:07:56.448Z,31.20
2018-07-20T16:17:45.713Z,30.90
2018-07-20T16:22:40.320Z,31.10
2018-07-20T16:27:34.849Z,30.90
2018-07-20T16:32:31.013Z,30.80
2018-07-20T16:37:25.625Z,30.90
2018-07-20T16:42:20.168Z,30.80
2018-07-20T16:47:14.748Z,30.80
2018-07-20T16:52:09.581Z,30.40
2018-07-20T16:57:04.203Z,30.00
2018-07-20T17:01:58.848Z,30.00
2018-07-20T17:06:53.478Z,30.00
2018-07-20T17:11:48.025Z,29.70
2018-07-20T17:16:42.794Z,29.50
2018-07-20T17:21:37.389Z,29.20
2018-07-20T17:26:31.928Z,29.00
2018-07-20T17:31:26.501Z,28.90
2018-07-20T17:36:21.061Z,28.40
2018-07-20T17:41:15.789Z,28.00
2018-07-20T17:46:10.371Z,27.90
2018-07-20T17:51:05.005Z,27.80
2018-07-20T17:55:59.698Z,27.40
2018-07-20T18:00:54.285Z,27.10
2018-07-20T18:05:48.816Z,26.90
2018-07-20T18:10:43.424Z,27.00
2018-07-20T18:15:38.112Z,27.10
2018-07-20T18:20:32.686Z,26.90
2018-07-20T18:25:27.327Z,26.70
2018-07-20T18:30:21.916Z,26.50
2018-07-20T18:35:16.534Z,26.60
2018-07-20T18:40:11.217Z,26.50
2018-07-20T18:45:06.461Z,26.10
2018-07-20T18:50:00.996Z,26.20
2018-07-20T18:54:55.562Z,25.80
2018-07-20T18:59:50.448Z,25.60
2018-07-20T19:04:45.193Z,25.50
2018-07-20T19:09:39.765Z,25.50
2018-07-20T19:14:34.290Z,25.60
2018-07-20T19:19:29.051Z,25.70
2018-07-20T19:24:23.597Z,25.80
2018-07-20T19:29:18.169Z,25.80
2018-07-20T19:34:12.789Z,25.80
2018-07-20T19:39:10.254Z,25.70
2018-07-20T19:44:04.806Z,25.70
2018-07-20T19:48:59.340Z,25.70
2018-07-20T19:53:54.006Z,25.70
2018-07-20T19:58:48.783Z,25.60
2018-07-20T20:03:43.483Z,25.50
2018-07-20T20:08:38.110Z,25.40
2018-07-20T20:13:32.718Z,25.20
2018-07-20T20:18:27.402Z,25.20
2018-07-20T20:23:21.997Z,25.00
2018-07-20T20:28:16.582Z,24.90
2018-07-20T20:33:11.338Z,24.80
2018-07-20T20:38:06.138Z,24.60
2018-07-20T20:43:00.768Z,24.20
2018-07-20T20:47:55.337Z,24.10
2018-07-20T20:52:49.982Z,23.90
2018-07-20T20:57:44.527Z,23.80
2018-07-20T21:02:39.154Z,23.90
2018-07-20T21:07:33.686Z,23.70
2018-07-20T21:12:28.345Z,23.60
2018-07-20T21:17:22.847Z,23.70
2018-07-20T21:22:17.770Z,23.60
2018-07-20T21:32:06.790Z,23.40
2018-07-20T21:41:55.617Z,23.10
2018-07-20T21:46:50.232Z,22.90
2018-07-20T21:51:44.771Z,23.00
2018-07-20T21:56:39.353Z,22.90
2018-07-20T22:01:33.946Z,22.90
2018-07-20T22:06:28.510Z,22.80
2018-07-20T22:11:23.100Z,22.70
2018-07-20T22:16:17.736Z,22.70
2018-07-20T22:26:06.755Z,22.40
2018-07-20T22:35:55.488Z,22.40
2018-07-20T22:40:50.026Z,22.30
2018-07-20T22:45:44.591Z,22.40
2018-07-20T22:50:39.152Z,22.20
2018-07-20T22:55:33.675Z,22.20
2018-07-20T23:00:28.249Z,22.20
2018-07-20T23:05:23.076Z,22.00
2018-07-20T23:10:17.868Z,21.80
2018-07-20T23:15:12.401Z,21.80
2018-07-20T23:25:01.166Z,21.70
2018-07-20T23:29:55.693Z,21.70
2018-07-20T23:34:50.264Z,21.70
2018-07-20T23:39:44.801Z,21.70
2018-07-20T23:44:39.358Z,21.70
2018-07-20T23:49:33.897Z,21.60
2018-07-20T23:54:28.402Z,21.50
2018-07-20T23:59:23.150Z,21.50
